x

Santa Monica Basin - 33nm Wsw Of Santa Monica, Ca (46025) Wave Buoy

2:50pm - Fri 19th Dec 2014 All times are PST. -8 hours from GMT.

  • Sig Wave height 3.3ft
  • Swell Direction
  • Peak Period 12s
  • Average Period 7s
  • Wind
    2mph
  • Sea Temp 64°f
  • Air Temp 61°f
  • Sea Pressure 1021.7mb
  • Santa Monica Basin - 33nm Wsw Of Santa Monica, Ca
  • Santa Monica Basin - 33nm Wsw Of Santa Monica, Ca

More Historic Weather Station data

Upgrade to MSW Pro to gain access to the past 30 days of data for over 8000 Wavebouys and Weather Stations around the globe.

Join Pro

Comparision Forecast

View Surf forecast
   
Fri 12/19 2:50pm 3.5ft 12s 7s 2
mph
1021.7mb 64f 61f
1:50pm 3.5ft 11s 7s 2 4 mph 1022mb 64f 61f
12:50pm 3ft 11s 7s 7 9 mph 1023.1mb 64f 60f
11:50am 3.5ft 12s 8s 4 7 mph 1024mb 64f 60f
10:50am 3.5ft 12s 8s 2 4 mph 1024.4mb 64f 61f
9:50am 3.5ft 11s 7s 9 11 mph 1024mb 64f 60f
8:50am 3.5ft 14s 8s 4 7 mph 1024mb 64f 60f
7:50am 3.5ft 11s 7s 2 4 mph 1023.4mb 64f 60f
6:50am 3.5ft 13s 7s 7 9 mph 1023.1mb 64f 59f
5:50am 3.5ft 13s 8s 9 11 mph 1023mb 64f 60f
4:50am 3.5ft 15s 8s 9
mph
1023.3mb 64f 60f
3:50am 3.5ft 12s 8s 4 7 mph 1022.4mb 64f 60f
2:50am 3.5ft 14s 8s 4 7 mph 1022.9mb 64f 60f
1:50am 3.5ft 10s 8s 7 9 mph 1022.7mb 64f 60f
12:50am 3.5ft 13s 8s 4 7 mph 1023.2mb 64f 60f
Thu 12/18 11:50pm 3.5ft 10s 8s 4
mph
1023.5mb 64f 60f
10:50pm 3.5ft 13s 8s 4 7 mph 1023.5mb 64f 60f
9:50pm 3.5ft 14s 8s 4 7 mph 1023.4mb 64f 60f
8:50pm 3.5ft 12s 8s 2 4 mph 1023.1mb 64f 60f
7:50pm 3.5ft 11s 8s 2 4 mph 1022.9mb 64f 59f
6:50pm 3.5ft 13s 7s 4
mph
1022.4mb 64f 59f
5:50pm 3.5ft 12s 8s 4
mph
1022mb 64f 59f
4:50pm 4ft 12s 7s 7 9 mph 1021.5mb 64f 60f
3:50pm 3.5ft 13s 7s 7
mph
1021.4mb 64f 59f
2:50pm 4ft 11s 7s 9 11 mph 1021.1mb 64f 58f
1:50pm 4ft 14s 7s 9 13 mph 1020.8mb 64f 59f
12:50pm 4ft 13s 8s 11 13 mph 1021.3mb 64f 57f
11:50am 4ft 14s 8s 9 11 mph 1022.1mb 64f 56f
10:50am 4ft 14s 7s 7 9 mph 1023mb 64f 57f
9:50am 4.5ft 12s 8s 2 7 mph 1022.9mb 64f 60f
8:50am 4.5ft 11s 7s 2
mph
1022.1mb 64f 60f
7:50am 5ft 11s 7s 7 11 mph 1021.4mb 64f 60f
6:50am 5ft 11s 7s 7 9 mph 1021mb 64f 60f
5:50am 5ft 13s 7s 9 11 mph 1020.5mb 64f 60f
4:50am 5.5ft 10s 6s 13 16 mph 1020.1mb 64f 60f
3:50am 6ft 12s 7s 13 18 mph 1020mb 64f 60f
2:50am 6ft 11s 6s 18 20 mph 1020mb 64f 60f
1:50am 6ft 12s 6s 18 22 mph 1019.8mb 64f 60f
12:50am 6ft 12s 6s 18 20 mph 1019.6mb 64f 60f
Wed 12/17 11:50pm 6ft 11s 6s 18 22 mph 1019.6mb 64f 61f
10:50pm 6ft 13s 6s 18 22 mph 1019.9mb 64f 61f
9:50pm 6ft 11s 6s 18 22 mph 1020mb 64f 61f
8:50pm 6ft 10s 6s 20 22 mph 1019.6mb 64f 61f
7:50pm 6.5ft 13s 6s 18 20 mph 1019.1mb 64f 61f
6:50pm 6.5ft 11s 6s 20 22 mph 1018.5mb 64f 61f
5:50pm 7ft 13s 6s 18 22 mph 1018.4mb 64f 61f
4:50pm 7ft 14s 6s 20 22 mph 1018.2mb 64f 61f
3:50pm 7.5ft 14s 6s 20 27 mph 1018.2mb 64f 61f
2:50pm 7.5ft 15s 6s 22 29 mph 1018.1mb 64f 61f
1:50pm 7.5ft 14s 6s 22 27 mph 1018.2mb 64f 61f
12:50pm 7ft 12s 7s 25 29 mph 1018.3mb 64f 61f
11:50am 7ft 14s 7s 18 22 mph 1018.1mb 64f 61f
10:50am 7ft 11s 7s 13 18 mph 1018.4mb 64f 61f
9:50am 6ft 15s 6s 16 18 mph 1018.3mb 64f 61f
8:50am 6ft 12s 7s 16 20 mph 1017.5mb 64f 61f
7:50am 6.5ft 12s 7s 18 22 mph 1016.5mb 64f 60f
6:50am 6ft 12s 7s 16 20 mph 1015.8mb 64f 59f
5:50am 6.5ft 15s 7s 20 25 mph 1014.9mb 64f 59f
4:50am 7ft 12s 8s 16 20 mph 1014.4mb 64f 59f
3:50am 6.5ft 13s 8s 13 18 mph 1014.3mb 64f 59f
2:50am 6.5ft 11s 8s 13 18 mph 1014.4mb 64f 60f
12:50am 8ft 14s 10s 9 11 mph 1015.1mb 64f 61f
Tue 12/16 11:50pm 7ft 13s 9s 9 11 mph 1015.6mb 64f 60f
10:50pm 6.5ft 15s 9s 2 4 mph 1015.9mb 64f 60f
9:50pm 6.5ft 15s 9s 7 11 mph 1016.3mb 64f 60f
8:50pm 7ft 15s 9s 2 4 mph 1016.2mb 64f 61f
7:50pm 6ft 15s 8s 2 4 mph 1016mb 64f 60f
6:50pm 7ft 16s 8s 7 11 mph 1015.7mb 64f 61f
5:50pm 6.5ft 16s 8s 9 13 mph 1015.4mb 64f 60f
4:50pm 7ft 16s 8s 11 16 mph 1014.8mb 64f 60f
3:50pm 6.5ft 16s 7s 11 13 mph 1014.6mb 64f 60f
2:50pm 7ft 15s 7s 11 16 mph 1014.6mb 64f 60f
1:50pm 7ft 16s 7s 13 18 mph 1014.6mb 64f 60f
12:50pm 7ft 16s 7s 16 20 mph 1014.7mb 64f 60f
11:50am 7.5ft 16s 7s 18 22 mph 1015.4mb 64f 59f
10:50am 7ft 15s 6s 20 25 mph 1016.2mb 64f 59f
9:50am 8ft 17s 7s 22 27 mph 1016.2mb 64f 59f
8:50am 7ft 15s 7s 22 27 mph 1016.1mb 64f 58f
7:50am 7ft 16s 7s 18 25 mph 1015.7mb 64f 58f
6:50am 6ft 17s 6s 20 22 mph 1015.3mb 64f 58f
5:50am 5ft 14s 7s 16 20 mph 1014.9mb 64f 58f
4:50am 5.5ft 17s 7s 18 22 mph 1014.5mb 64f 58f
3:50am 5.5ft 16s 8s 18 22 mph 1014.9mb 64f 58f
2:50am 6ft 17s 8s 16 18 mph 1015.4mb 64f 57f
1:50am 6ft 17s 8s 13 18 mph 1015.5mb 64f 57f
12:50am 6ft 17s 8s 11 16 mph 1015.7mb 64f 57f
Mon 12/15 11:50pm 6ft 12s 8s 9 13 mph 1016.3mb 64f 59f